General Aviation Weather

Text Reports

Enter one or more of the following location identifiers separated by a space:

Zip Code, Four-Character ICAO or Three-Character IATA airport codes.

METAR - Aviation Routine Weather Report
KLCI - Laconia, New Hampshire
Updated at 4:15 PM GMT on October 31, 2014 (12:15 PM EDT):
METAR KLCI 311615Z AUTO 00000KT 10SM OVC050 09/M01 A3001 RMK AO1
TAF - Terminal Area Forecast
KLCI - Laconia, New Hampshire
Updated at 4:15 PM GMT on October 31, 2014 (12:15 PM EDT):
No TAF is currently available for this location.
Decoded:
No decoded TAF is available.
PIREP - Pilot Weather Report
KLCI - Laconia, New Hampshire
Updated at 4:15 PM GMT on October 31, 2014 (12:15 PM EDT):
No PIREP is currently available for this location.
AIRMET - Airmens Meteorological Information
KLCI - Laconia, New Hampshire
Updated at 4:15 PM GMT on October 31, 2014 (12:15 PM EDT):
No AIRMET is currently available for this location.
SIGMET - Significant Meteorological Information
KLCI - Laconia, New Hampshire
Updated at 4:15 PM GMT on October 31, 2014 (12:15 PM EDT):
No SIGMET is currently available for this location.
NOTAM - Notice to Airmen
KLCI - Laconia, New Hampshire
Updated at 4:15 PM GMT on October 31, 2014 (12:15 PM EDT):
No NOTAM is currently available for this location.
Forecast Area
KLCI - Laconia, New Hampshire
Updated at 4:15 PM GMT on October 31, 2014 (12:15 PM EDT):
No NOTAM is currently available for this location.
Aviation Weather Maps